createdAt,value
2023-04-13T00:01:33.746Z,10.48
2023-04-13T00:04:04.741Z,10.49
2023-04-13T00:06:31.811Z,10.51
2023-04-13T00:08:58.893Z,10.50
2023-04-13T00:11:27.875Z,10.47
2023-04-13T00:13:55.406Z,10.43
2023-04-13T00:16:23.294Z,10.37
2023-04-13T00:18:50.676Z,10.32
2023-04-13T00:21:17.382Z,10.30
2023-04-13T00:23:44.832Z,10.29
2023-04-13T00:26:11.471Z,10.26
2023-04-13T00:28:38.073Z,10.22
2023-04-13T00:31:04.847Z,10.21
2023-04-13T00:33:31.608Z,10.16
2023-04-13T00:35:58.182Z,10.12
2023-04-13T00:38:27.299Z,10.08
2023-04-13T00:40:54.747Z,10.03
2023-04-13T00:43:21.682Z,10.06
2023-04-13T00:45:48.765Z,10.06
2023-04-13T00:48:16.039Z,10.04
2023-04-13T00:50:42.957Z,10.01
2023-04-13T00:53:13.373Z,10.01
2023-04-13T00:55:42.663Z,9.96
2023-04-13T00:58:09.738Z,9.87
2023-04-13T01:00:39.225Z,9.83
2023-04-13T01:03:06.193Z,9.78
2023-04-13T01:05:39.730Z,9.71
2023-04-13T01:08:11.552Z,9.66
2023-04-13T01:10:58.761Z,9.62
2023-04-13T01:13:25.317Z,9.55
2023-04-13T01:16:12.138Z,9.50
2023-04-13T01:18:40.514Z,9.44
2023-04-13T01:21:09.254Z,9.42
2023-04-13T01:23:51.369Z,9.41
2023-04-13T01:26:17.984Z,9.38
2023-04-13T01:28:45.236Z,9.36
2023-04-13T01:31:12.784Z,9.34
2023-04-13T01:33:40.580Z,9.33
2023-04-13T01:36:08.609Z,9.33
2023-04-13T01:38:35.676Z,9.29
2023-04-13T01:41:02.591Z,9.26
2023-04-13T01:43:29.343Z,9.23
2023-04-13T01:46:25.253Z,9.19
2023-04-13T01:48:56.701Z,9.15
2023-04-13T01:51:24.899Z,9.13
2023-04-13T01:53:53.704Z,9.11
2023-04-13T01:56:23.220Z,9.08
2023-04-13T01:58:51.872Z,9.10
2023-04-13T02:01:18.443Z,9.09
2023-04-13T02:03:45.388Z,9.06
2023-04-13T02:06:12.246Z,9.05
2023-04-13T02:08:40.296Z,9.02
2023-04-13T02:11:07.803Z,9.03
2023-04-13T02:13:34.544Z,9.03
2023-04-13T02:16:21.128Z,9.03
2023-04-13T02:18:48.275Z,9.04
2023-04-13T02:21:16.390Z,9.04
2023-04-13T02:23:43.065Z,9.01
2023-04-13T02:26:10.310Z,8.98
2023-04-13T02:28:36.919Z,8.96
2023-04-13T02:31:03.729Z,8.96
2023-04-13T02:33:31.735Z,8.95
2023-04-13T02:35:59.227Z,8.95
2023-04-13T02:38:27.397Z,8.94
2023-04-13T02:40:58.986Z,9.03
2023-04-13T02:43:29.032Z,9.10
2023-04-13T02:45:55.965Z,9.14
2023-04-13T02:48:22.622Z,9.13
2023-04-13T02:50:49.259Z,9.08
2023-04-13T02:53:16.795Z,9.05
2023-04-13T02:55:43.363Z,9.03
2023-04-13T02:58:10.562Z,9.04
2023-04-13T03:00:37.521Z,9.05
2023-04-13T03:03:04.533Z,9.04
2023-04-13T03:05:34.058Z,9.02
2023-04-13T03:08:00.769Z,9.02
2023-04-13T03:10:27.414Z,9.02
2023-04-13T03:12:54.127Z,9.04
2023-04-13T03:15:20.798Z,9.06
2023-04-13T03:17:47.417Z,9.08
2023-04-13T03:20:16.398Z,9.12
2023-04-13T03:22:43.372Z,9.16
2023-04-13T03:25:09.978Z,9.17
2023-04-13T03:27:36.780Z,9.19
2023-04-13T03:30:03.895Z,9.20
2023-04-13T03:32:31.563Z,9.22
2023-04-13T03:34:58.295Z,9.24
2023-04-13T03:37:29.933Z,9.26
2023-04-13T03:39:56.683Z,9.29
2023-04-13T03:42:23.400Z,9.32
2023-04-13T03:44:49.929Z,9.33
2023-04-13T03:47:16.758Z,9.35
2023-04-13T03:49:43.296Z,9.40
2023-04-13T03:52:09.858Z,9.40
2023-04-13T03:54:36.831Z,9.40
2023-04-13T03:57:04.674Z,9.44
2023-04-13T03:59:31.561Z,9.47
2023-04-13T04:01:58.618Z,9.50
2023-04-13T04:04:25.487Z,9.53
2023-04-13T04:06:52.178Z,9.57
2023-04-13T04:09:18.786Z,9.61
2023-04-13T04:11:45.586Z,9.63
2023-04-13T04:14:12.177Z,9.65
2023-04-13T04:16:38.779Z,9.71
2023-04-13T04:19:05.398Z,9.76
2023-04-13T04:21:34.639Z,9.85
2023-04-13T04:24:01.645Z,9.91
2023-04-13T04:26:30.024Z,9.94
2023-04-13T04:29:02.589Z,9.99
2023-04-13T04:31:36.726Z,10.06
2023-04-13T04:34:04.038Z,10.12
2023-04-13T04:36:30.938Z,10.19
2023-04-13T04:39:02.725Z,10.22
2023-04-13T04:41:31.319Z,10.30
2023-04-13T04:44:03.491Z,10.40
2023-04-13T04:46:30.054Z,10.49
2023-04-13T04:49:00.715Z,10.58
2023-04-13T04:51:27.710Z,10.67
2023-04-13T04:53:54.377Z,10.75
2023-04-13T04:56:21.542Z,10.84
2023-04-13T04:58:48.088Z,10.93
2023-04-13T05:01:14.668Z,11.03
2023-04-13T05:03:41.291Z,11.20
2023-04-13T05:06:08.244Z,11.30
2023-04-13T05:08:34.845Z,11.38
2023-04-13T05:11:01.519Z,11.45
2023-04-13T05:13:28.144Z,11.50
2023-04-13T05:15:54.727Z,11.55
2023-04-13T05:18:21.704Z,11.60
2023-04-13T05:20:48.241Z,11.64
2023-04-13T05:23:14.817Z,11.75
2023-04-13T05:25:41.352Z,11.90
2023-04-13T05:28:07.930Z,12.00
2023-04-13T05:30:35.340Z,12.10
2023-04-13T05:33:05.760Z,12.15
2023-04-13T05:35:32.401Z,12.22
2023-04-13T05:38:01.211Z,12.27
2023-04-13T05:40:29.020Z,12.31
2023-04-13T05:42:56.404Z,12.35
2023-04-13T05:45:23.048Z,12.43
2023-04-13T05:47:50.340Z,12.54
2023-04-13T05:50:17.059Z,12.58
2023-04-13T05:52:43.616Z,12.62
2023-04-13T05:55:10.271Z,12.68
2023-04-13T05:57:36.974Z,12.77
2023-04-13T06:00:07.790Z,12.90
2023-04-13T06:02:36.289Z,13.08
2023-04-13T06:05:05.133Z,13.18
2023-04-13T06:07:31.913Z,13.27
2023-04-13T06:10:00.800Z,13.28
2023-04-13T06:12:27.537Z,13.30
2023-04-13T06:14:54.392Z,13.36
2023-04-13T06:17:20.971Z,13.39
2023-04-13T06:19:47.529Z,13.41
2023-04-13T06:22:14.055Z,13.41
2023-04-13T06:24:40.618Z,13.35
2023-04-13T06:27:07.193Z,13.32
2023-04-13T06:29:33.777Z,13.33
2023-04-13T06:32:00.503Z,13.37
2023-04-13T06:34:27.214Z,13.44
2023-04-13T06:36:54.095Z,13.49
2023-04-13T06:39:20.965Z,13.55
2023-04-13T06:41:48.341Z,13.52
2023-04-13T06:44:14.978Z,13.54
2023-04-13T06:46:41.679Z,13.56
2023-04-13T06:49:09.272Z,13.65
2023-04-13T06:51:36.075Z,13.74
2023-04-13T06:54:02.681Z,13.84
2023-04-13T06:56:29.272Z,14.00
2023-04-13T06:59:02.657Z,14.12
2023-04-13T07:01:29.878Z,14.26
2023-04-13T07:03:56.610Z,14.41
2023-04-13T07:06:23.312Z,14.50
2023-04-13T07:08:49.916Z,14.58
2023-04-13T07:11:16.488Z,14.64
2023-04-13T07:13:43.126Z,14.78
2023-04-13T07:16:09.814Z,14.87
2023-04-13T07:18:36.524Z,14.95
2023-04-13T07:21:03.182Z,15.05
2023-04-13T07:23:29.737Z,15.16
2023-04-13T07:25:56.301Z,15.26
2023-04-13T07:28:24.192Z,15.36
2023-04-13T07:30:50.901Z,15.45
2023-04-13T07:33:17.529Z,15.58
2023-04-13T07:35:44.168Z,15.70
2023-04-13T07:38:10.753Z,15.78
2023-04-13T07:40:37.336Z,15.89
2023-04-13T07:43:03.957Z,15.99
2023-04-13T07:45:33.788Z,16.10
2023-04-13T07:48:00.737Z,16.18
2023-04-13T07:50:27.532Z,16.31
2023-04-13T07:52:54.716Z,16.45
2023-04-13T07:55:21.451Z,16.53
2023-04-13T07:57:48.004Z,16.55
2023-04-13T08:00:15.131Z,16.57
2023-04-13T08:02:42.398Z,16.60
2023-04-13T08:05:09.541Z,16.68
2023-04-13T08:07:36.558Z,16.77
2023-04-13T08:10:04.183Z,16.78
2023-04-13T08:12:31.361Z,16.80
2023-04-13T08:14:57.991Z,16.81
2023-04-13T08:17:24.609Z,16.84
2023-04-13T08:19:51.345Z,16.94
2023-04-13T08:22:18.636Z,17.02
2023-04-13T08:24:45.926Z,17.13
2023-04-13T08:27:12.502Z,17.19
2023-04-13T08:29:39.127Z,17.24
2023-04-13T08:32:05.988Z,17.30
2023-04-13T08:34:32.678Z,17.38
2023-04-13T08:36:59.220Z,17.49
2023-04-13T08:39:26.091Z,17.49
2023-04-13T08:41:52.719Z,17.45
2023-04-13T08:44:19.390Z,17.39
2023-04-13T08:46:46.617Z,17.32
2023-04-13T08:49:13.499Z,17.32
2023-04-13T08:51:43.532Z,17.31
2023-04-13T08:54:12.840Z,17.30
2023-04-13T08:56:46.024Z,17.19
2023-04-13T08:59:16.211Z,17.10
2023-04-13T09:01:45.292Z,17.02
2023-04-13T09:04:13.618Z,16.94
2023-04-13T09:06:42.732Z,17.02
2023-04-13T09:09:10.987Z,17.12
2023-04-13T09:11:37.657Z,17.18
2023-04-13T09:14:04.265Z,17.26
2023-04-13T09:16:37.995Z,17.36
2023-04-13T09:19:04.590Z,17.48
2023-04-13T09:21:38.616Z,17.50
2023-04-13T09:24:08.749Z,17.55
2023-04-13T09:26:45.474Z,17.60
2023-04-13T09:29:18.940Z,17.66
2023-04-13T09:31:46.616Z,17.51
2023-04-13T09:34:13.652Z,17.47
2023-04-13T09:36:53.340Z,17.48
2023-04-13T09:39:28.316Z,17.49
2023-04-13T09:41:55.413Z,17.55
2023-04-13T09:44:24.653Z,17.63
2023-04-13T09:46:59.098Z,17.72
2023-04-13T09:49:26.268Z,17.85
2023-04-13T09:51:55.876Z,17.99
2023-04-13T09:54:22.899Z,18.13
2023-04-13T09:56:54.605Z,18.30
2023-04-13T09:59:24.832Z,18.35
2023-04-13T10:01:51.986Z,18.42
2023-04-13T10:04:19.147Z,18.46
2023-04-13T10:06:47.015Z,18.56
2023-04-13T10:09:13.737Z,18.70
2023-04-13T10:11:49.725Z,18.81
2023-04-13T10:14:36.156Z,18.85
2023-04-13T10:17:36.253Z,18.85
2023-04-13T10:20:10.326Z,18.95
2023-04-13T10:22:38.354Z,19.30
2023-04-13T10:25:06.936Z,19.92
2023-04-13T10:27:36.591Z,20.60
2023-04-13T10:30:13.241Z,21.20
2023-04-13T10:32:39.854Z,21.54
2023-04-13T10:35:11.736Z,21.63
2023-04-13T10:37:40.567Z,21.65
2023-04-13T10:40:13.471Z,21.62
2023-04-13T10:45:28.617Z,21.96
2023-04-13T10:47:55.886Z,22.23
2023-04-13T10:50:23.592Z,22.53
2023-04-13T10:53:06.933Z,23.12
2023-04-13T10:55:34.758Z,23.84
2023-04-13T10:58:02.153Z,24.46
2023-04-13T11:00:44.895Z,24.98
2023-04-13T11:03:17.684Z,25.50
2023-04-13T11:05:48.490Z,25.91
2023-04-13T11:08:21.748Z,25.79
2023-04-13T11:10:52.786Z,25.54
2023-04-13T11:13:19.776Z,25.23
2023-04-13T11:15:48.148Z,25.03
2023-04-13T11:18:24.064Z,24.80
2023-04-13T11:20:51.243Z,25.03
2023-04-13T11:23:18.944Z,25.47
2023-04-13T11:26:01.427Z,25.87
2023-04-13T11:28:39.439Z,26.53
2023-04-13T11:31:07.649Z,26.72
2023-04-13T11:33:34.458Z,26.52
2023-04-13T11:36:01.190Z,26.20
2023-04-13T11:38:28.287Z,25.87
2023-04-13T11:41:12.580Z,25.96
2023-04-13T11:43:42.238Z,26.03
2023-04-13T11:46:10.506Z,26.02
2023-04-13T11:48:37.145Z,26.05
2023-04-13T11:51:04.334Z,26.01
2023-04-13T11:53:32.246Z,25.90
2023-04-13T11:55:58.893Z,25.79
2023-04-13T11:58:26.274Z,25.65
2023-04-13T12:00:54.556Z,25.43
2023-04-13T12:06:00.396Z,25.47
2023-04-13T12:08:28.136Z,25.69
2023-04-13T12:11:38.991Z,25.81
2023-04-13T12:17:01.526Z,26.31
2023-04-13T12:21:53.360Z,26.83
2023-04-13T12:24:20.103Z,26.97
2023-04-13T12:29:16.322Z,26.67
2023-04-13T12:31:45.598Z,26.67
2023-04-13T12:34:12.398Z,26.78
2023-04-13T12:36:39.008Z,26.99
2023-04-13T12:39:06.757Z,27.28
2023-04-13T12:41:33.608Z,27.56
2023-04-13T12:44:00.471Z,27.63
2023-04-13T12:46:27.110Z,27.79
2023-04-13T12:48:54.098Z,27.42
2023-04-13T12:51:20.797Z,26.60
2023-04-13T12:53:47.438Z,25.64
2023-04-13T12:56:13.977Z,24.98
2023-04-13T12:58:40.574Z,24.52
2023-04-13T13:01:07.305Z,24.34
2023-04-13T13:03:34.867Z,24.20
2023-04-13T13:06:01.790Z,24.12
2023-04-13T13:08:28.414Z,24.08
2023-04-13T13:10:55.919Z,23.99
2023-04-13T13:13:22.923Z,23.86
2023-04-13T13:15:49.471Z,23.64
2023-04-13T13:18:16.062Z,23.35
2023-04-13T13:20:42.768Z,22.92
2023-04-13T13:23:09.845Z,22.53
2023-04-13T13:25:38.141Z,22.26
2023-04-13T13:28:13.945Z,21.92
2023-04-13T13:30:41.018Z,21.61
2023-04-13T13:33:08.144Z,21.37
2023-04-13T13:35:34.964Z,21.30
2023-04-13T13:38:02.057Z,21.20
2023-04-13T13:40:28.864Z,21.00
2023-04-13T13:42:55.693Z,20.77
2023-04-13T13:45:22.355Z,20.58
2023-04-13T13:47:53.808Z,20.40
2023-04-13T13:50:23.763Z,20.31
2023-04-13T13:53:01.624Z,20.29
2023-04-13T13:55:29.420Z,20.25
2023-04-13T13:57:56.049Z,20.29
2023-04-13T14:00:23.393Z,20.72
2023-04-13T14:02:50.030Z,21.24
2023-04-13T14:05:17.720Z,21.52
2023-04-13T14:07:45.049Z,21.40
2023-04-13T14:10:11.841Z,21.15
2023-04-13T14:12:40.786Z,20.85
2023-04-13T14:15:08.296Z,20.54
2023-04-13T14:17:35.483Z,20.36
2023-04-13T14:20:02.494Z,20.41
2023-04-13T14:22:29.259Z,20.90
2023-04-13T14:24:56.730Z,21.67
2023-04-13T14:27:23.300Z,22.39
2023-04-13T14:29:50.030Z,23.01
2023-04-13T14:32:16.621Z,23.32
2023-04-13T14:34:46.063Z,23.67
2023-04-13T14:37:13.262Z,23.90
2023-04-13T14:39:39.859Z,24.00
2023-04-13T14:42:07.771Z,24.13
2023-04-13T14:44:34.784Z,24.02
2023-04-13T14:47:01.583Z,23.93
2023-04-13T14:49:28.212Z,23.86
2023-04-13T14:51:54.773Z,23.76
2023-04-13T14:54:21.455Z,23.49
2023-04-13T14:56:48.715Z,23.19
2023-04-13T14:59:15.342Z,22.72
2023-04-13T15:01:42.353Z,22.35
2023-04-13T15:04:09.160Z,22.11
2023-04-13T15:06:36.517Z,21.74
2023-04-13T15:09:06.416Z,21.27
2023-04-13T15:11:33.141Z,20.77
2023-04-13T15:13:59.658Z,20.12
2023-04-13T15:16:26.275Z,19.59
2023-04-13T15:18:52.999Z,19.05
2023-04-13T15:21:19.649Z,18.54
2023-04-13T15:23:46.221Z,18.16
2023-04-13T15:26:17.203Z,17.78
2023-04-13T15:28:43.808Z,17.53
2023-04-13T15:31:10.520Z,17.34
2023-04-13T15:33:38.136Z,17.16
2023-04-13T15:36:05.086Z,17.00
2023-04-13T15:38:31.653Z,16.79
2023-04-13T15:40:58.374Z,16.52
2023-04-13T15:43:24.894Z,16.29
2023-04-13T15:45:51.505Z,16.10
2023-04-13T15:48:19.062Z,15.91
2023-04-13T15:50:45.632Z,15.81
2023-04-13T15:53:12.148Z,15.68
2023-04-13T15:55:40.312Z,15.55
2023-04-13T15:58:07.611Z,15.42
2023-04-13T16:00:34.255Z,15.29
2023-04-13T16:03:01.023Z,15.20
2023-04-13T16:05:28.907Z,15.11
2023-04-13T16:07:57.191Z,14.97
2023-04-13T16:10:24.237Z,14.89
2023-04-13T16:12:50.860Z,14.77
2023-04-13T16:15:19.408Z,14.68
2023-04-13T16:17:47.885Z,14.59
2023-04-13T16:20:14.623Z,14.50
2023-04-13T16:22:41.899Z,14.41
2023-04-13T16:25:11.317Z,14.31
2023-04-13T16:27:40.031Z,14.24
2023-04-13T16:30:08.194Z,14.17
2023-04-13T16:32:34.863Z,14.09
2023-04-13T16:35:01.739Z,14.01
2023-04-13T16:37:28.300Z,13.92
2023-04-13T16:39:54.904Z,13.83
2023-04-13T16:42:22.044Z,13.72
2023-04-13T16:44:49.050Z,13.63
2023-04-13T16:47:15.667Z,13.60
2023-04-13T16:49:42.253Z,13.55
2023-04-13T16:52:08.888Z,13.47
2023-04-13T16:54:36.027Z,13.39
2023-04-13T16:57:02.651Z,13.31
2023-04-13T16:59:29.285Z,13.27
2023-04-13T17:01:55.903Z,13.24
2023-04-13T17:04:22.624Z,13.18
2023-04-13T17:06:49.312Z,13.13
2023-04-13T17:09:15.873Z,13.08
2023-04-13T17:11:42.472Z,13.01
2023-04-13T17:14:09.165Z,12.95
2023-04-13T17:16:36.005Z,12.88
2023-04-13T17:19:03.185Z,12.80
2023-04-13T17:21:30.001Z,12.78
2023-04-13T17:23:56.688Z,12.74
2023-04-13T17:26:23.269Z,12.70
2023-04-13T17:28:49.877Z,12.68
2023-04-13T17:31:16.761Z,12.64
2023-04-13T17:33:45.049Z,12.59
2023-04-13T17:36:11.612Z,12.54
2023-04-13T17:38:38.161Z,12.52
2023-04-13T17:41:06.614Z,12.47
2023-04-13T17:43:33.443Z,12.44
2023-04-13T17:46:00.092Z,12.38
2023-04-13T17:48:26.646Z,12.32
2023-04-13T17:50:53.193Z,12.31
2023-04-13T17:53:19.821Z,12.28
2023-04-13T17:55:46.452Z,12.27
2023-04-13T17:58:13.040Z,12.23
2023-04-13T18:00:39.676Z,12.19
2023-04-13T18:03:06.896Z,12.15
2023-04-13T18:05:33.609Z,12.12
2023-04-13T18:08:00.475Z,12.12
2023-04-13T18:10:27.093Z,12.08
2023-04-13T18:12:53.686Z,11.97
2023-04-13T18:15:20.339Z,11.91
2023-04-13T18:17:46.942Z,11.88
2023-04-13T18:20:13.610Z,11.83
2023-04-13T18:22:40.475Z,11.78
2023-04-13T18:25:07.171Z,11.69
2023-04-13T18:27:33.775Z,11.64
2023-04-13T18:30:00.504Z,11.61
2023-04-13T18:32:27.146Z,11.58
2023-04-13T18:34:53.777Z,11.55
2023-04-13T18:37:20.561Z,11.51
2023-04-13T18:39:49.909Z,11.47
2023-04-13T18:42:16.723Z,11.45
2023-04-13T18:44:43.275Z,11.31
2023-04-13T18:47:09.837Z,11.21
2023-04-13T18:49:36.388Z,11.17
2023-04-13T18:52:03.037Z,11.13
2023-04-13T18:54:30.052Z,11.07
2023-04-13T18:56:56.621Z,11.00
2023-04-13T18:59:23.245Z,10.95
2023-04-13T19:01:49.928Z,10.92
2023-04-13T19:04:16.679Z,10.93
2023-04-13T19:06:43.538Z,10.91
2023-04-13T19:09:10.112Z,10.80
2023-04-13T19:11:51.025Z,10.77
2023-04-13T19:14:17.759Z,10.75
2023-04-13T19:16:46.321Z,10.72
2023-04-13T19:19:14.821Z,10.64
2023-04-13T19:21:41.451Z,10.58
2023-04-13T19:24:08.194Z,10.53
2023-04-13T19:26:34.828Z,10.47
2023-04-13T19:29:03.834Z,10.45
2023-04-13T19:31:30.567Z,10.35
2023-04-13T19:33:57.695Z,10.22
2023-04-13T19:36:25.857Z,10.12
2023-04-13T19:38:52.583Z,10.07
2023-04-13T19:41:19.237Z,10.06
2023-04-13T19:43:47.203Z,10.03
2023-04-13T19:46:13.850Z,9.97
2023-04-13T19:48:41.666Z,9.92
2023-04-13T19:51:08.431Z,9.89
2023-04-13T19:53:37.429Z,9.88
2023-04-13T19:56:04.844Z,9.85
2023-04-13T19:58:31.459Z,9.82
2023-04-13T20:00:59.124Z,9.83
2023-04-13T20:03:28.752Z,9.81
2023-04-13T20:06:01.342Z,9.78
2023-04-13T20:08:27.911Z,9.69
2023-04-13T20:10:55.328Z,9.64
2023-04-13T20:13:21.917Z,9.65
2023-04-13T20:15:48.535Z,9.66
2023-04-13T20:18:17.294Z,9.61
2023-04-13T20:20:44.281Z,9.55
2023-04-13T20:23:10.977Z,9.51
2023-04-13T20:25:38.637Z,9.48
2023-04-13T20:28:05.545Z,9.41
2023-04-13T20:30:32.189Z,9.38
2023-04-13T20:32:58.823Z,9.32
2023-04-13T20:35:25.382Z,9.30
2023-04-13T20:37:52.006Z,9.24
2023-04-13T20:40:18.758Z,9.18
2023-04-13T20:42:45.527Z,9.10
2023-04-13T20:45:15.308Z,9.03
2023-04-13T20:47:44.938Z,9.00
2023-04-13T20:50:13.446Z,8.93
2023-04-13T20:52:41.964Z,8.94
2023-04-13T20:55:12.015Z,8.91
2023-04-13T20:57:41.882Z,8.90
2023-04-13T21:00:13.836Z,8.87
2023-04-13T21:02:42.647Z,8.83
2023-04-13T21:05:10.441Z,8.77
2023-04-13T21:07:38.060Z,8.76
2023-04-13T21:10:04.780Z,8.73
2023-04-13T21:12:32.042Z,8.71
2023-04-13T21:14:58.621Z,8.66
2023-04-13T21:17:25.526Z,8.59
2023-04-13T21:19:52.250Z,8.48
2023-04-13T21:22:19.729Z,8.38
2023-04-13T21:24:46.705Z,8.31
2023-04-13T21:27:14.053Z,8.28
2023-04-13T21:29:40.654Z,8.26
2023-04-13T21:32:07.282Z,8.17
2023-04-13T21:34:33.919Z,8.12
2023-04-13T21:37:03.135Z,8.06
2023-04-13T21:39:30.348Z,8.02
2023-04-13T21:41:57.000Z,8.00
2023-04-13T21:44:29.692Z,8.02
2023-04-13T21:46:57.377Z,8.00
2023-04-13T21:49:24.114Z,7.97
2023-04-13T21:51:50.833Z,7.91
2023-04-13T21:54:17.416Z,7.80
2023-04-13T21:56:44.020Z,7.74
2023-04-13T21:59:10.643Z,7.68
2023-04-13T22:01:37.371Z,7.60
2023-04-13T22:04:04.202Z,7.52
2023-04-13T22:06:31.327Z,7.48
2023-04-13T22:08:58.113Z,7.43
2023-04-13T22:11:24.851Z,7.43
2023-04-13T22:13:51.459Z,7.36
2023-04-13T22:16:18.142Z,7.27
2023-04-13T22:18:44.913Z,7.23
2023-04-13T22:21:11.573Z,7.22
2023-04-13T22:23:38.134Z,7.20
2023-04-13T22:26:04.908Z,7.16
2023-04-13T22:28:31.863Z,7.08
2023-04-13T22:30:58.801Z,7.11
2023-04-13T22:33:25.503Z,7.06
2023-04-13T22:35:52.197Z,7.03
2023-04-13T22:38:19.212Z,7.02
2023-04-13T22:40:45.873Z,6.88
2023-04-13T22:43:12.623Z,6.78
2023-04-13T22:45:39.242Z,6.72
2023-04-13T22:48:06.142Z,6.67
2023-04-13T22:50:32.842Z,6.61
2023-04-13T22:52:59.376Z,6.59
2023-04-13T22:55:26.107Z,6.57
2023-04-13T22:57:52.779Z,6.56
2023-04-13T23:00:20.855Z,6.50
2023-04-13T23:02:51.716Z,6.52
2023-04-13T23:05:18.463Z,6.48
2023-04-13T23:07:45.057Z,6.47
2023-04-13T23:10:11.705Z,6.53
2023-04-13T23:12:39.957Z,6.59
2023-04-13T23:15:06.931Z,6.56
2023-04-13T23:17:33.567Z,6.50
2023-04-13T23:20:00.390Z,6.40
2023-04-13T23:22:28.112Z,6.27
2023-04-13T23:24:54.736Z,6.20
2023-04-13T23:27:21.480Z,6.14
2023-04-13T23:29:50.966Z,6.06
2023-04-13T23:32:17.594Z,6.03
2023-04-13T23:34:44.183Z,5.93
2023-04-13T23:37:11.064Z,5.95
2023-04-13T23:39:38.075Z,5.89
2023-04-13T23:42:04.777Z,5.89
2023-04-13T23:44:31.344Z,5.87
2023-04-13T23:46:57.941Z,5.80
2023-04-13T23:49:24.602Z,5.73
2023-04-13T23:51:51.420Z,5.73
2023-04-13T23:54:18.050Z,5.61
2023-04-13T23:56:45.953Z,5.61
2023-04-13T23:59:12.521Z,5.65
